Wilsonville, Nebraska
Current Conditions -  °F | °C
As of 6:53 AM on Saturday 25 Oct 2014 (Local Time) from KMCK Reporting Station
Clear Clear  
Wind Chill: 35°   Ceiling: Unl
Heat Index: 40°   Visibility: 10mi
Dew Point: 34°   Wind: 7mph
Humidity: 79%   Direction: 230°SW
Pressure: 30.09"   Gusts: NA
Location:  40.11°N, 100.11°W
Report Text: KMCK 251153Z AUTO 23006KT 10SM CLR 04/01 A3009 RMK AO2 SLP185 T00440011 10094 20039 53007
Loading
Personal Weather Stations






























Interactive Weather Map
Tropical Storm Tracking
New forecast layout! Learn more

10-Day Weather Forecast

Advertisements
Track Severe Weather on mobile